Time;durP1;ratioP1;P1;durP2;ratioP2;P2;SDS_P1;SDS_P2;PMS_P1;PMS_P2;Temp;Humidity;BMP_temperature;BMP_pressure;BME280_temperature;BME280_humidity;BME280_pressure;Samples;Min_cycle;Max_cycle;Signal;HPM_P1;HPM_P2
2023/12/02 00:01:18;;;;;;;30.08;12.30;;;0.30;99.90;;;;;;4115754;29;20058;-79
2023/12/02 00:03:30;;;;;;;29.98;11.77;;;-0.60;99.90;;;;;;4132366;28;20055;-79
2023/12/02 00:05:31;;;;;;;30.38;12.73;;;0.00;99.90;;;;;;4144074;28;20092;-79
2023/12/02 00:07:38;;;;;;;30.88;11.98;;;0.40;99.90;;;;;;4149768;28;20041;-79
2023/12/02 00:09:38;;;;;;;32.60;11.70;;;0.30;99.90;;;;;;4147345;28;20042;-79
2023/12/02 00:11:48;;;;;;;30.10;13.10;;;-1.00;99.90;;;;;;4163951;28;20156;-79
2023/12/02 00:13:52;;;;;;;23.90;11.13;;;-0.60;99.90;;;;;;4163828;28;20073;-79
2023/12/02 00:15:52;;;;;;;30.92;11.88;;;-0.60;99.90;;;;;;4115578;28;20050;-79
2023/12/02 00:18:00;;;;;;;26.42;12.43;;;-0.50;99.90;;;;;;4130238;28;20065;-79
2023/12/02 00:20:01;;;;;;;25.63;10.20;;;-0.60;99.90;;;;;;4114229;29;20370;-78
2023/12/02 00:22:05;;;;;;;29.90;11.85;;;-0.60;99.90;;;;;;4132654;28;20109;-78
2023/12/02 00:24:06;;;;;;;31.63;12.63;;;-0.30;99.90;;;;;;4131417;28;20111;-78
2023/12/02 00:26:08;;;;;;;30.02;12.82;;;-0.60;99.90;;;;;;4115865;29;20549;-78
2023/12/02 00:28:09;;;;;;;28.02;11.43;;;-0.60;99.90;;;;;;4131226;28;20067;-78
2023/12/02 00:30:12;;;;;;;29.25;11.68;;;0.00;99.90;;;;;;4148053;28;20046;-78
2023/12/02 00:32:17;;;;;;;26.20;11.77;;;-0.60;99.90;;;;;;4131330;28;20081;-78
2023/12/02 00:34:22;;;;;;;29.92;10.98;;;-0.60;99.90;;;;;;4133520;28;20106;-79
2023/12/02 00:36:24;;;;;;;31.98;11.95;;;-1.00;99.90;;;;;;4142475;28;20054;-79
2023/12/02 00:38:27;;;;;;;28.08;12.05;;;-0.60;99.90;;;;;;4132467;28;20500;-79
2023/12/02 00:40:32;;;;;;;31.40;12.60;;;-0.60;99.90;;;;;;4116149;29;20043;-79
2023/12/02 00:42:35;;;;;;;27.13;10.95;;;-0.60;99.90;;;;;;4115687;29;20086;-78
2023/12/02 00:44:38;;;;;;;31.42;12.57;;;-0.60;99.90;;;;;;4115466;29;20099;-79
2023/12/02 00:46:56;;;;;;;30.67;11.57;;;-0.60;99.90;;;;;;4114918;29;20111;-79
2023/12/02 00:49:01;;;;;;;27.67;11.45;;;-0.70;99.90;;;;;;4130910;28;20105;-79
2023/12/02 00:51:03;;;;;;;26.77;12.13;;;-0.60;99.90;;;;;;4130394;28;20051;-79
2023/12/02 00:53:14;;;;;;;32.38;13.05;;;-0.60;99.90;;;;;;4130323;28;20043;-79
2023/12/02 00:55:34;;;;;;;25.70;10.98;;;-0.60;99.90;;;;;;4130982;28;20054;-79
2023/12/02 00:57:39;;;;;;;29.30;10.80;;;-0.60;99.90;;;;;;4131513;28;20110;-79
2023/12/02 00:59:41;;;;;;;34.13;13.13;;;-0.60;99.90;;;;;;4130403;28;20054;-79
2023/12/02 01:01:51;;;;;;;22.65;11.18;;;-0.60;99.90;;;;;;4129900;28;20054;-78
2023/12/02 01:03:54;;;;;;;29.73;11.52;;;-0.60;99.90;;;;;;4145557;28;20550;-79
2023/12/02 01:06:01;;;;;;;32.65;13.55;;;-0.60;99.90;;;;;;4142347;28;20116;-79
2023/12/02 01:08:06;;;;;;;31.45;12.50;;;-0.60;99.90;;;;;;4146096;28;20089;-79
2023/12/02 01:10:11;;;;;;;26.65;11.68;;;-0.60;99.90;;;;;;4145621;28;20086;-79
2023/12/02 01:12:14;;;;;;;28.42;10.63;;;-0.60;99.90;;;;;;4147679;28;20050;-79
2023/12/02 01:14:17;;;;;;;26.23;11.80;;;-0.50;99.90;;;;;;4146014;28;20054;-78
2023/12/02 01:16:25;;;;;;;28.02;11.10;;;-0.60;99.90;;;;;;4146444;28;20082;-78
2023/12/02 01:18:28;;;;;;;27.20;11.05;;;-1.00;99.90;;;;;;4146462;28;20097;-78
2023/12/02 01:20:40;;;;;;;26.30;11.73;;;-0.60;99.90;;;;;;4132630;28;20158;-77
2023/12/02 01:22:47;;;;;;;;;;;-0.60;99.90;;;;;;4115697;28;20055;-78
2023/12/02 01:24:48;;;;;;;30.30;11.45;;;-0.50;99.90;;;;;;4130504;28;19949;-78
2023/12/02 01:26:54;;;;;;;27.05;11.07;;;-0.30;99.90;;;;;;4146062;28;20038;-79
2023/12/02 01:28:59;;;;;;;28.55;11.82;;;-0.50;99.90;;;;;;4130530;28;20384;-79
2023/12/02 01:31:02;;;;;;;29.33;11.95;;;-0.90;99.90;;;;;;4129712;28;20078;-79
2023/12/02 01:33:10;;;;;;;27.25;11.20;;;-1.00;99.90;;;;;;4112998;29;20062;-79
2023/12/02 01:35:11;;;;;;;30.55;12.20;;;-0.60;99.90;;;;;;4129166;28;20055;-79
2023/12/02 01:37:14;;;;;;;26.42;10.77;;;-0.80;99.90;;;;;;4128466;28;20140;-79
2023/12/02 01:39:16;;;;;;;32.85;12.70;;;-0.60;99.90;;;;;;4130617;28;20082;-79
2023/12/02 01:41:31;;;;;;;28.45;11.55;;;-0.90;99.90;;;;;;4114819;29;20085;-79
2023/12/02 01:43:34;;;;;;;26.77;11.13;;;-0.60;99.90;;;;;;4135245;28;20049;-78
2023/12/02 01:45:38;;;;;;;30.13;11.82;;;0.40;99.90;;;;;;4147578;28;20059;-78
2023/12/02 01:47:49;;;;;;;27.10;11.52;;;0.10;99.90;;;;;;4146789;28;20054;-78
2023/12/02 01:49:52;;;;;;;23.33;11.07;;;-1.10;99.90;;;;;;4147077;28;20049;-78
2023/12/02 01:52:04;;;;;;;27.63;12.35;;;-0.60;99.90;;;;;;4146816;28;20644;-79
2023/12/02 01:54:08;;;;;;;28.85;10.43;;;-0.70;99.90;;;;;;4137537;28;20047;-78
2023/12/02 01:56:14;;;;;;;28.60;11.52;;;-0.70;99.90;;;;;;4134924;28;20055;-78
2023/12/02 01:58:18;;;;;;;24.70;9.85;;;-1.00;99.90;;;;;;4130945;28;20054;-78
2023/12/02 02:00:23;;;;;;;26.33;11.20;;;-0.70;99.90;;;;;;4131728;28;20053;-78
2023/12/02 02:02:28;;;;;;;26.70;10.95;;;-0.70;99.90;;;;;;4117279;28;20043;-79
2023/12/02 02:04:37;;;;;;;22.70;10.80;;;0.00;99.90;;;;;;4115302;29;20043;-78
2023/12/02 02:06:41;;;;;;;25.92;9.90;;;-0.70;99.90;;;;;;4132266;28;20050;-78
2023/12/02 02:08:46;;;;;;;26.80;10.60;;;-0.90;99.90;;;;;;4131859;28;20507;-78
2023/12/02 02:10:56;;;;;;;26.25;10.52;;;-1.10;99.90;;;;;;4113648;28;20047;-78
2023/12/02 02:13:31;;;;;;;23.98;9.82;;;-0.70;99.90;;;;;;4114520;28;20119;-79
2023/12/02 02:15:46;;;;;;;28.65;10.73;;;-0.70;99.90;;;;;;4113949;28;20047;-79
2023/12/02 02:17:49;;;;;;;22.08;8.88;;;-0.70;99.90;;;;;;4129424;28;20055;-79
2023/12/02 02:19:52;;;;;;;26.40;10.00;;;-0.70;99.90;;;;;;4128034;28;20073;-79
2023/12/02 02:21:59;;;;;;;25.20;9.38;;;-0.70;99.90;;;;;;4114293;28;20403;-79
2023/12/02 02:24:01;;;;;;;23.90;10.20;;;0.20;99.90;;;;;;4129091;28;20148;-78
2023/12/02 02:26:05;;;;;;;22.83;9.48;;;-0.70;99.90;;;;;;4144991;28;20065;-79
2023/12/02 02:28:06;;;;;;;23.45;9.52;;;-0.60;99.90;;;;;;4145258;28;20050;-79
2023/12/02 02:30:13;;;;;;;22.00;8.80;;;-0.70;99.90;;;;;;4145148;28;20048;-79
2023/12/02 02:32:39;;;;;;;22.83;9.82;;;-0.60;99.90;;;;;;4129381;28;20055;-79
2023/12/02 02:34:46;;;;;;;24.10;10.27;;;-0.70;99.90;;;;;;4116416;28;20059;-79
2023/12/02 02:36:56;;;;;;;22.65;8.80;;;-0.70;99.90;;;;;;4130383;28;20046;-79
2023/12/02 02:39:00;;;;;;;26.52;10.02;;;-0.60;99.90;;;;;;4130211;28;20039;-79
2023/12/02 02:41:11;;;;;;;19.70;8.43;;;-0.70;99.90;;;;;;4128853;28;20053;-79
2023/12/02 02:43:25;;;;;;;23.63;10.07;;;-0.60;99.90;;;;;;4145201;28;20050;-79
2023/12/02 02:45:27;;;;;;;21.63;9.20;;;-0.70;99.90;;;;;;4129144;28;20054;-79
2023/12/02 02:47:32;;;;;;;21.70;10.02;;;-0.70;99.90;;;;;;4130810;28;20035;-79
2023/12/02 02:49:34;;;;;;;23.08;9.32;;;-0.70;99.90;;;;;;4128880;28;20066;-79
2023/12/02 02:51:34;;;;;;;22.23;10.05;;;0.00;99.90;;;;;;4113061;29;20086;-79
2023/12/02 02:53:35;;;;;;;22.05;9.55;;;-1.00;99.90;;;;;;4130609;28;20043;-79
2023/12/02 02:55:41;;;;;;;24.95;10.55;;;-0.70;99.90;;;;;;4129595;28;20057;-79
2023/12/02 02:57:45;;;;;;;26.85;10.68;;;-0.70;99.90;;;;;;4114351;28;20055;-79
2023/12/02 02:59:52;;;;;;;24.08;10.80;;;-0.70;99.90;;;;;;4149604;28;20054;-78
2023/12/02 03:02:01;;;;;;;22.45;9.90;;;-0.60;99.90;;;;;;4132988;28;20038;-78
2023/12/02 03:04:03;;;;;;;26.40;10.95;;;-0.80;99.90;;;;;;4116388;29;20051;-79
2023/12/02 03:06:08;;;;;;;27.33;11.65;;;-0.80;99.90;;;;;;4134679;28;20054;-79
2023/12/02 03:08:10;;;;;;;23.98;10.25;;;-0.80;99.90;;;;;;4132422;28;20090;-78
2023/12/02 03:10:13;;;;;;;24.65;11.02;;;-0.90;99.90;;;;;;4147461;28;20050;-78
2023/12/02 03:12:26;;;;;;;31.92;11.70;;;-0.80;99.90;;;;;;4132648;28;20075;-79
2023/12/02 03:14:32;;;;;;;28.30;10.52;;;-0.80;99.90;;;;;;4148926;28;20066;-79
2023/12/02 03:16:33;;;;;;;29.70;9.95;;;-0.80;99.90;;;;;;4116717;29;20043;-79
2023/12/02 03:18:34;;;;;;;26.33;11.20;;;0.10;99.90;;;;;;4134001;28;20069;-79
2023/12/02 03:20:34;;;;;;;29.60;12.25;;;-0.80;99.90;;;;;;4117611;29;20102;-79
2023/12/02 03:22:36;;;;;;;24.50;10.55;;;-0.80;99.90;;;;;;4133663;28;20043;-79
2023/12/02 03:24:38;;;;;;;25.27;11.15;;;-0.80;99.90;;;;;;4148731;28;20133;-79
2023/12/02 03:26:43;;;;;;;29.17;11.98;;;-0.80;99.90;;;;;;4132440;28;20054;-79
2023/12/02 03:29:02;;;;;;;25.30;9.77;;;-1.20;99.90;;;;;;4132097;28;20047;-79
2023/12/02 03:31:04;;;;;;;28.05;12.32;;;-0.70;99.90;;;;;;4132886;28;20613;-79
2023/12/02 03:33:06;;;;;;;24.90;9.85;;;-0.80;99.90;;;;;;4146887;28;20085;-79
2023/12/02 03:35:13;;;;;;;21.45;9.43;;;-1.20;99.90;;;;;;4148905;28;20046;-79
2023/12/02 03:37:29;;;;;;;23.58;10.07;;;-0.80;99.90;;;;;;4149432;28;20089;-79
2023/12/02 03:39:38;;;;;;;21.17;9.40;;;-0.70;99.90;;;;;;4149288;28;20046;-78
2023/12/02 03:41:49;;;;;;;23.23;10.30;;;-0.10;99.90;;;;;;4149518;28;20054;-78
2023/12/02 03:43:57;;;;;;;26.15;9.82;;;-1.10;99.90;;;;;;4150620;28;20053;-78
2023/12/02 03:45:59;;;;;;;21.70;9.40;;;-0.80;99.90;;;;;;4149292;28;20071;-78
2023/12/02 03:48:10;;;;;;;22.83;9.15;;;-0.90;99.90;;;;;;4150513;28;20057;-78
2023/12/02 03:50:27;;;;;;;19.88;8.32;;;-0.90;99.90;;;;;;4133109;28;20051;-78
2023/12/02 03:52:52;;;;;;;20.30;8.38;;;-0.80;99.90;;;;;;4138169;28;20053;-78
2023/12/02 03:55:02;;;;;;;19.23;7.90;;;-0.80;99.90;;;;;;4131919;28;20127;-78
2023/12/02 03:57:09;;;;;;;23.73;8.43;;;-0.80;99.90;;;;;;4116531;29;20054;-78
2023/12/02 03:59:12;;;;;;;21.23;9.02;;;-0.20;99.90;;;;;;4133349;28;20050;-78
2023/12/02 04:01:13;;;;;;;20.60;9.80;;;-0.90;99.90;;;;;;4133592;28;20047;-78
2023/12/02 04:03:15;;;;;;;18.67;8.40;;;-0.80;99.90;;;;;;4116632;29;20058;-78
2023/12/02 04:05:18;;;;;;;17.88;8.68;;;-0.80;99.90;;;;;;4132284;28;20073;-79
2023/12/02 04:07:21;;;;;;;17.50;8.45;;;-0.80;99.90;;;;;;4115365;29;20101;-79
2023/12/02 04:09:21;;;;;;;18.60;8.00;;;-1.40;99.90;;;;;;4130944;28;20057;-79
2023/12/02 04:11:22;;;;;;;20.00;7.47;;;-0.90;99.90;;;;;;4132415;28;20054;-79
2023/12/02 04:13:25;;;;;;;20.92;8.57;;;-0.40;99.90;;;;;;4145463;28;20042;-78
2023/12/02 04:15:37;;;;;;;23.58;9.07;;;-1.30;99.90;;;;;;4132021;28;20046;-78
2023/12/02 04:17:42;;;;;;;20.48;8.95;;;-0.80;99.90;;;;;;4131454;28;20047;-78
2023/12/02 04:19:50;;;;;;;21.88;9.38;;;-0.90;99.90;;;;;;4133008;28;20069;-79
2023/12/02 04:22:02;;;;;;;19.55;8.55;;;-0.80;99.90;;;;;;4131832;28;20058;-78
2023/12/02 04:24:03;;;;;;;20.55;7.70;;;-0.90;99.90;;;;;;4132643;28;20070;-79
2023/12/02 04:26:07;;;;;;;21.10;9.07;;;-0.90;99.90;;;;;;4116632;28;20039;-79
2023/12/02 04:28:09;;;;;;;24.48;9.20;;;-0.90;99.90;;;;;;4117214;29;20051;-79
2023/12/02 04:30:22;;;;;;;22.75;8.63;;;-0.90;99.90;;;;;;4132854;28;20159;-79
2023/12/02 04:32:25;;;;;;;19.98;9.35;;;-0.90;99.90;;;;;;4133274;28;20055;-79
2023/12/02 04:34:34;;;;;;;21.30;9.35;;;-0.90;99.90;;;;;;4133744;28;20047;-79
2023/12/02 04:36:53;;;;;;;21.85;8.90;;;-0.90;99.90;;;;;;4132797;28;20053;-79
2023/12/02 04:38:58;;;;;;;24.02;10.55;;;-0.90;99.90;;;;;;4117682;28;20070;-79
2023/12/02 04:41:20;;;;;;;20.08;8.68;;;-0.90;99.90;;;;;;4132593;28;20054;-79
2023/12/02 04:43:30;;;;;;;22.55;10.23;;;-0.90;99.90;;;;;;4133701;28;20051;-79
2023/12/02 04:45:31;;;;;;;23.70;9.63;;;-0.90;99.90;;;;;;4133502;28;20050;-79
2023/12/02 04:47:42;;;;;;;25.88;10.45;;;-1.00;99.90;;;;;;4115929;28;20051;-79
2023/12/02 04:50:01;;;;;;;25.02;10.52;;;-1.00;99.90;;;;;;4132039;28;20047;-79
2023/12/02 04:52:01;;;;;;;26.35;11.13;;;-1.30;99.90;;;;;;4117119;29;20055;-79
2023/12/02 04:54:07;;;;;;;24.58;9.57;;;0.20;99.90;;;;;;4117058;28;20053;-79
2023/12/02 04:56:18;;;;;;;22.65;9.95;;;-1.00;99.90;;;;;;4133490;28;20430;-79
2023/12/02 04:58:20;;;;;;;26.25;10.00;;;-1.00;99.90;;;;;;4133307;28;20057;-79
2023/12/02 05:00:32;;;;;;;24.35;9.23;;;-1.00;99.90;;;;;;4116429;29;20488;-79
2023/12/02 05:02:33;;;;;;;25.25;10.88;;;-1.00;99.90;;;;;;4132434;28;20063;-79
2023/12/02 05:04:39;;;;;;;26.00;11.25;;;-1.00;99.90;;;;;;4133354;28;20039;-79
2023/12/02 05:06:41;;;;;;;28.95;11.55;;;-1.00;99.90;;;;;;4133092;28;20051;-79
2023/12/02 05:08:45;;;;;;;25.83;11.02;;;-1.10;99.90;;;;;;4134211;28;20046;-79
2023/12/02 05:10:49;;;;;;;27.60;10.70;;;-1.50;99.90;;;;;;4132850;28;20127;-79
2023/12/02 05:12:50;;;;;;;27.90;11.70;;;-0.40;99.90;;;;;;4116631;29;20047;-79
2023/12/02 05:14:54;;;;;;;28.58;11.15;;;-1.10;99.90;;;;;;4132367;28;20078;-79
2023/12/02 05:17:02;;;;;;;29.00;11.45;;;-1.10;99.90;;;;;;4133258;28;20057;-79
2023/12/02 05:19:05;;;;;;;25.73;10.82;;;-1.10;99.90;;;;;;4133168;28;20066;-79
2023/12/02 05:21:13;;;;;;;27.33;11.32;;;-1.10;99.90;;;;;;4143972;28;20049;-79
2023/12/02 05:23:18;;;;;;;29.33;11.02;;;-1.10;99.90;;;;;;4148988;28;20046;-79
2023/12/02 05:25:21;;;;;;;31.20;12.55;;;-1.10;99.90;;;;;;4132445;28;20137;-79
2023/12/02 05:27:36;;;;;;;27.60;11.27;;;-1.10;99.90;;;;;;4149037;28;20039;-78
2023/12/02 05:29:42;;;;;;;26.23;10.00;;;-1.10;99.90;;;;;;4164697;28;20054;-79
2023/12/02 05:31:50;;;;;;;25.40;10.45;;;-1.10;99.90;;;;;;4116943;28;20047;-79
2023/12/02 05:33:55;;;;;;;28.65;11.07;;;-0.60;99.90;;;;;;4147336;28;20060;-79
2023/12/02 05:36:01;;;;;;;25.40;10.00;;;-1.10;99.90;;;;;;4137094;28;20050;-79
2023/12/02 05:38:10;;;;;;;28.55;10.95;;;-1.20;99.90;;;;;;4164442;28;20046;-79
2023/12/02 05:40:37;;;;;;;25.23;10.35;;;-1.20;99.90;;;;;;4148276;28;20109;-79
2023/12/02 05:42:57;;;;;;;24.70;10.50;;;-1.20;99.90;;;;;;4149629;28;20042;-79
2023/12/02 05:45:11;;;;;;;27.23;10.93;;;-1.20;99.90;;;;;;4133295;28;20050;-79
2023/12/02 05:47:30;;;;;;;31.95;10.63;;;-1.20;99.90;;;;;;4133609;28;20117;-79
2023/12/02 05:49:33;;;;;;;25.63;11.02;;;-0.80;99.90;;;;;;4148265;28;20061;-79
2023/12/02 05:51:47;;;;;;;29.30;11.63;;;-1.20;99.90;;;;;;4136705;28;20066;-79
2023/12/02 05:54:08;;;;;;;28.15;10.40;;;-1.20;99.90;;;;;;4116469;29;20043;-79
2023/12/02 05:56:30;;;;;;;29.55;11.65;;;-1.20;99.90;;;;;;4116795;28;20500;-79
2023/12/02 05:58:41;;;;;;;29.95;11.95;;;-1.20;99.90;;;;;;4118057;28;20062;-79
2023/12/02 06:00:46;;;;;;;25.02;10.05;;;-1.10;99.90;;;;;;4149149;28;20081;-79
2023/12/02 06:02:55;;;;;;;28.42;11.98;;;-1.10;99.90;;;;;;4149369;28;20042;-79
2023/12/02 06:05:01;;;;;;;26.83;11.70;;;-1.10;99.90;;;;;;4147483;28;20049;-79
2023/12/02 06:07:12;;;;;;;32.70;11.82;;;-1.10;99.90;;;;;;4148854;28;20042;-79
2023/12/02 06:09:19;;;;;;;29.48;12.07;;;-1.10;99.90;;;;;;4147054;28;20087;-78
2023/12/02 06:11:21;;;;;;;28.10;11.45;;;-0.80;99.90;;;;;;4147988;28;20058;-79
2023/12/02 06:13:24;;;;;;;34.38;12.05;;;-0.50;99.90;;;;;;4148111;28;20134;-79
2023/12/02 06:15:36;;;;;;;28.48;11.38;;;-1.10;99.90;;;;;;4147827;28;20042;-79
2023/12/02 06:17:39;;;;;;;31.65;12.00;;;-1.10;99.90;;;;;;4132234;28;20093;-79
2023/12/02 06:19:43;;;;;;;32.28;12.13;;;-1.10;99.90;;;;;;4120898;28;20047;-79
2023/12/02 06:21:46;;;;;;;26.23;11.70;;;-1.10;99.90;;;;;;4116477;29;20047;-79
2023/12/02 06:23:58;;;;;;;31.45;11.52;;;-1.10;99.90;;;;;;4132212;28;20035;-79
2023/12/02 06:26:04;;;;;;;28.10;12.15;;;0.00;99.90;;;;;;4130543;28;20078;-79
2023/12/02 06:28:08;;;;;;;29.35;11.50;;;-1.10;99.90;;;;;;4147135;28;20585;-79
2023/12/02 06:30:10;;;;;;;31.25;13.40;;;-1.10;99.90;;;;;;4113123;29;20047;-79
2023/12/02 06:32:19;;;;;;;28.83;12.02;;;-1.10;99.90;;;;;;4145260;28;20034;-80
2023/12/02 06:34:32;;;;;;;30.10;10.93;;;-1.10;99.90;;;;;;4131361;28;20534;-79
2023/12/02 06:36:44;;;;;;;28.88;12.32;;;-0.40;99.90;;;;;;4114368;29;20044;-79
2023/12/02 06:38:47;;;;;;;32.38;10.85;;;-1.10;99.90;;;;;;4130654;28;20085;-79
2023/12/02 06:40:55;;;;;;;26.77;10.98;;;-1.10;99.90;;;;;;4129822;28;20059;-79
2023/12/02 06:42:59;;;;;;;30.67;12.48;;;-1.10;99.90;;;;;;4133211;28;20063;-79
2023/12/02 06:45:05;;;;;;;29.50;12.02;;;-1.00;99.90;;;;;;4129906;28;20054;-79
2023/12/02 06:47:15;;;;;;;32.42;12.20;;;-1.10;99.90;;;;;;4148264;28;20061;-79
2023/12/02 06:49:28;;;;;;;32.75;12.35;;;-1.10;99.90;;;;;;4123455;28;20434;-79
2023/12/02 06:51:52;;;;;;;34.42;11.40;;;-1.10;99.90;;;;;;4133257;28;20524;-78
2023/12/02 06:53:56;;;;;;;28.58;11.40;;;-1.10;99.90;;;;;;4149395;28;20053;-79
2023/12/02 06:56:00;;;;;;;29.38;12.43;;;-0.40;99.90;;;;;;4149748;28;20054;-79
2023/12/02 06:58:04;;;;;;;27.60;11.63;;;-1.10;99.90;;;;;;4148906;28;20046;-79
2023/12/02 07:00:12;;;;;;;31.50;13.05;;;-1.10;99.90;;;;;;4150052;28;20046;-77
2023/12/02 07:02:29;;;;;;;28.02;12.20;;;-1.10;99.90;;;;;;4133009;28;20102;-78
2023/12/02 07:04:45;;;;;;;28.48;11.93;;;-1.10;99.90;;;;;;4149088;28;20085;-79
2023/12/02 07:06:50;;;;;;;27.92;11.23;;;-1.10;99.90;;;;;;4133036;28;20050;-78
2023/12/02 07:09:04;;;;;;;29.97;12.53;;;-1.10;99.90;;;;;;4148140;28;20130;-78
2023/12/02 07:11:16;;;;;;;29.45;11.75;;;-1.10;99.90;;;;;;4131028;28;20345;-78
2023/12/02 07:13:21;;;;;;;27.88;10.82;;;-1.10;99.90;;;;;;4132222;28;20090;-79
2023/12/02 07:15:30;;;;;;;29.73;11.38;;;-1.10;99.90;;;;;;4132835;28;20063;-78
2023/12/02 07:17:33;;;;;;;28.70;10.98;;;-1.10;99.90;;;;;;4115718;29;20043;-78
2023/12/02 07:19:38;;;;;;;31.73;11.93;;;-1.10;99.90;;;;;;4133513;28;20082;-78
2023/12/02 07:21:43;;;;;;;27.80;10.98;;;-0.90;99.90;;;;;;4132479;28;20047;-79
2023/12/02 07:23:59;;;;;;;31.13;12.23;;;-1.20;99.90;;;;;;4132631;28;20042;-79
2023/12/02 07:26:19;;;;;;;25.55;10.73;;;-0.50;99.90;;;;;;4131867;28;20490;-79
2023/12/02 07:28:36;;;;;;;27.98;11.75;;;-1.10;99.90;;;;;;4147056;28;20527;-80
2023/12/02 07:30:41;;;;;;;29.13;12.02;;;-0.70;99.90;;;;;;4131738;28;20106;-80
2023/12/02 07:32:47;;;;;;;26.63;11.80;;;-1.10;99.90;;;;;;4115611;28;20051;-79
2023/12/02 07:34:55;;;;;;;26.45;9.88;;;-1.10;99.90;;;;;;4131318;28;20074;-79
2023/12/02 07:37:02;;;;;;;35.78;11.70;;;-1.10;99.90;;;;;;4131536;28;20062;-79
2023/12/02 07:39:03;;;;;;;31.92;12.20;;;-1.10;99.90;;;;;;4130941;28;20106;-79
2023/12/02 07:41:10;;;;;;;27.73;10.75;;;-0.60;99.90;;;;;;4131827;28;20043;-79
2023/12/02 07:43:17;;;;;;;25.83;11.00;;;-1.10;99.90;;;;;;4116480;28;20039;-79
2023/12/02 07:45:21;;;;;;;30.60;11.95;;;-1.10;99.90;;;;;;4118539;29;20043;-79
2023/12/02 07:47:32;;;;;;;26.52;11.20;;;-1.10;99.90;;;;;;4135190;28;20074;-79
2023/12/02 07:49:41;;;;;;;26.00;10.98;;;-1.10;99.90;;;;;;4118459;28;20075;-79
2023/12/02 07:51:48;;;;;;;23.80;10.25;;;-1.10;99.90;;;;;;4151392;28;20050;-79
2023/12/02 07:54:00;;;;;;;25.92;11.35;;;-1.10;99.90;;;;;;4134874;28;20053;-79
2023/12/02 07:56:08;;;;;;;31.02;12.02;;;-0.60;99.90;;;;;;4135033;28;20077;-79
2023/12/02 07:58:16;;;;;;;30.27;10.95;;;-1.10;99.90;;;;;;4134655;28;20033;-79
2023/12/02 08:00:32;;;;;;;30.90;11.90;;;-1.20;99.90;;;;;;4134198;28;20050;-79
2023/12/02 08:02:36;;;;;;;25.88;10.70;;;-1.10;99.90;;;;;;4150050;28;20081;-79
2023/12/02 08:04:40;;;;;;;24.60;10.55;;;-1.10;99.90;;;;;;4150296;28;20042;-78
2023/12/02 08:06:57;;;;;;;30.27;11.18;;;-0.80;99.90;;;;;;4103528;29;20055;-78
2023/12/02 08:09:06;;;;;;;25.98;10.50;;;-1.10;99.90;;;;;;4134510;28;20074;-78
2023/12/02 08:11:17;;;;;;;24.73;10.95;;;-1.10;99.90;;;;;;4134233;28;20051;-78
2023/12/02 08:13:18;;;;;;;26.35;11.20;;;-1.10;99.90;;;;;;4102314;29;20079;-79
2023/12/02 08:15:20;;;;;;;27.48;11.65;;;-1.10;99.90;;;;;;4125211;28;20058;-78
2023/12/02 08:17:32;;;;;;;29.85;11.10;;;-1.10;99.90;;;;;;4135019;28;20027;-77
2023/12/02 08:19:39;;;;;;;26.65;11.65;;;-1.00;99.90;;;;;;4134362;28;20043;-78
2023/12/02 08:21:50;;;;;;;34.47;11.88;;;-1.00;99.90;;;;;;4118304;29;20054;-78
2023/12/02 08:23:56;;;;;;;26.73;11.90;;;-1.00;99.90;;;;;;4118812;28;20043;-78
2023/12/02 08:25:57;;;;;;;29.08;12.52;;;-1.00;99.90;;;;;;4135542;28;20118;-78
2023/12/02 08:27:59;;;;;;;30.50;11.02;;;-1.00;99.90;;;;;;4118048;29;20055;-78
2023/12/02 08:30:05;;;;;;;30.55;12.25;;;-1.00;99.90;;;;;;4126742;28;20107;-78
2023/12/02 08:32:07;;;;;;;28.75;11.43;;;-0.90;99.90;;;;;;4149826;28;20053;-78
2023/12/02 08:34:16;;;;;;;28.05;12.27;;;-0.90;99.90;;;;;;4134370;28;20046;-78
2023/12/02 08:36:18;;;;;;;24.25;11.00;;;-0.90;99.90;;;;;;4117470;28;20086;-78
2023/12/02 08:38:21;;;;;;;27.58;10.85;;;-0.80;99.90;;;;;;4134229;28;20049;-78
2023/12/02 08:40:31;;;;;;;27.85;11.50;;;-0.80;99.90;;;;;;4118079;28;20126;-78
2023/12/02 08:42:41;;;;;;;26.23;11.25;;;-0.80;99.90;;;;;;4133042;28;20050;-78
2023/12/02 08:44:43;;;;;;;28.88;12.00;;;-0.70;99.90;;;;;;4133905;28;20054;-78
2023/12/02 08:46:44;;;;;;;34.10;11.65;;;-0.70;99.90;;;;;;4132278;28;20051;-78
2023/12/02 08:48:45;;;;;;;28.88;12.30;;;-0.70;99.90;;;;;;4133931;28;20047;-78
2023/12/02 08:50:56;;;;;;;31.00;13.40;;;-0.50;99.90;;;;;;4132292;28;20058;-78
2023/12/02 08:53:16;;;;;;;28.30;10.98;;;-0.50;99.90;;;;;;4119064;28;20059;-77
2023/12/02 08:55:23;;;;;;;30.63;11.63;;;-0.50;99.90;;;;;;4133371;28;20090;-79
2023/12/02 08:57:26;;;;;;;23.88;11.65;;;0.50;99.90;;;;;;4117145;28;20066;-78
2023/12/02 08:59:28;;;;;;;29.83;11.20;;;-0.40;99.90;;;;;;4133253;28;20050;-78
2023/12/02 09:01:31;;;;;;;27.77;11.70;;;-0.30;99.90;;;;;;4116064;28;20583;-78
2023/12/02 09:03:34;;;;;;;24.02;10.77;;;0.30;99.90;;;;;;4131305;28;20427;-78
2023/12/02 09:05:45;;;;;;;26.40;12.73;;;-0.20;99.90;;;;;;4141640;28;20046;-78
2023/12/02 09:07:47;;;;;;;24.88;10.98;;;-0.20;99.90;;;;;;4163344;28;20045;-78
2023/12/02 09:09:52;;;;;;;26.13;11.38;;;-0.20;99.90;;;;;;4147724;28;20058;-78
2023/12/02 09:11:55;;;;;;;26.77;12.27;;;-0.10;99.90;;;;;;4145874;28;20076;-78
2023/12/02 09:13:59;;;;;;;28.90;12.75;;;-0.10;99.90;;;;;;4148118;28;20077;-78
2023/12/02 09:16:01;;;;;;;27.38;12.00;;;0.40;99.90;;;;;;4147261;28;20046;-78
2023/12/02 09:18:12;;;;;;;26.15;11.18;;;0.00;99.90;;;;;;4130524;28;20062;-78
2023/12/02 09:20:31;;;;;;;25.65;11.40;;;0.00;99.90;;;;;;4146315;28;20042;-78
2023/12/02 09:22:49;;;;;;;24.02;10.32;;;0.10;99.90;;;;;;4146560;28;20051;-78
2023/12/02 09:24:57;;;;;;;22.73;9.73;;;0.10;99.90;;;;;;4131139;28;20074;-78
2023/12/02 09:27:00;;;;;;;34.05;11.13;;;0.10;99.90;;;;;;4129578;28;20520;-78
2023/12/02 09:29:01;;;;;;;24.45;11.43;;;0.10;99.90;;;;;;4144814;28;20078;-78
2023/12/02 09:31:10;;;;;;;22.95;10.05;;;0.10;99.90;;;;;;4114057;28;20051;-75
2023/12/02 09:33:19;;;;;;;24.13;10.65;;;0.10;99.90;;;;;;4116985;29;20047;-78
2023/12/02 09:35:21;;;;;;;26.55;11.85;;;0.20;99.90;;;;;;4166856;28;20109;-78
2023/12/02 09:37:53;;;;;;;27.23;11.10;;;0.10;99.90;;;;;;4130056;28;20083;-78
2023/12/02 09:40:16;;;;;;;20.60;10.25;;;0.20;99.90;;;;;;4131586;28;20085;-78
2023/12/02 09:42:21;;;;;;;25.88;10.38;;;0.10;99.90;;;;;;4131754;28;20069;-78
2023/12/02 09:44:41;;;;;;;24.83;10.63;;;0.20;99.90;;;;;;4129589;28;20052;-79
2023/12/02 09:46:53;;;;;;;26.48;10.90;;;0.20;99.90;;;;;;4130447;28;20042;-79
2023/12/02 09:49:26;;;;;;;24.52;10.10;;;0.10;99.90;;;;;;4129384;28;20106;-79
2023/12/02 09:52:09;;;;;;;25.52;10.90;;;0.10;99.90;;;;;;4115017;28;20043;-79
2023/12/02 09:54:37;;;;;;;23.85;10.32;;;0.20;99.90;;;;;;4133072;28;20046;-78
2023/12/02 09:56:50;;;;;;;24.00;9.57;;;0.20;99.90;;;;;;4160914;28;20049;-78
2023/12/02 09:59:36;;;;;;;31.60;11.88;;;0.20;99.90;;;;;;4130145;28;20051;-78
2023/12/02 10:01:42;;;;;;;23.30;10.50;;;0.30;99.90;;;;;;4129859;28;20504;-78
2023/12/02 10:04:07;;;;;;;24.08;9.88;;;1.20;99.90;;;;;;4128734;28;20050;-78
2023/12/02 10:06:45;;;;;;;24.88;11.35;;;0.40;99.90;;;;;;4144381;28;20048;-78
2023/12/02 10:09:21;;;;;;;24.85;10.38;;;0.50;99.90;;;;;;4128431;28;20061;-79
2023/12/02 10:11:33;;;;;;;26.88;10.30;;;0.50;99.90;;;;;;4144327;28;20106;-79
2023/12/02 10:13:52;;;;;;;23.80;10.57;;;0.60;99.90;;;;;;4127881;28;20043;-79
2023/12/02 10:15:57;;;;;;;27.90;11.32;;;0.60;99.90;;;;;;4127002;28;20053;-79
2023/12/02 10:18:14;;;;;;;26.48;11.00;;;0.70;99.90;;;;;;4126354;28;20050;-79
2023/12/02 10:20:24;;;;;;;23.13;10.68;;;0.70;99.90;;;;;;4127448;28;20054;-79
2023/12/02 10:22:32;;;;;;;29.05;10.60;;;0.70;99.90;;;;;;4126201;28;20078;-79
2023/12/02 10:24:45;;;;;;;24.77;10.68;;;1.00;99.90;;;;;;4125903;28;20094;-79
2023/12/02 10:27:03;;;;;;;24.80;10.57;;;0.90;99.90;;;;;;4130904;28;20077;-79
2023/12/02 10:30:11;;;;;;;26.90;11.15;;;0.90;99.90;;;;;;4125531;28;20047;-79
2023/12/02 10:32:28;;;;;;;21.02;10.40;;;1.00;99.90;;;;;;4076434;29;20078;-78
2023/12/02 10:34:41;;;;;;;25.85;10.18;;;1.10;99.90;;;;;;4126390;28;20558;-78
2023/12/02 10:36:52;;;;;;;21.83;9.60;;;1.10;99.90;;;;;;4124719;28;20043;-78
2023/12/02 10:39:19;;;;;;;24.73;10.02;;;1.00;99.90;;;;;;4109594;28;20059;-76
2023/12/02 10:41:38;;;;;;;24.35;10.52;;;1.20;99.90;;;;;;4126183;28;20051;-78
2023/12/02 10:43:42;;;;;;;21.38;9.95;;;1.30;99.90;;;;;;4107916;29;20491;-78
2023/12/02 10:45:48;;;;;;;22.00;9.60;;;2.20;99.90;;;;;;4124066;28;20133;-78
2023/12/02 10:47:52;;;;;;;20.10;9.57;;;1.40;99.90;;;;;;4119243;28;20043;-78
2023/12/02 10:49:53;;;;;;;20.48;9.32;;;1.50;99.90;;;;;;4122384;28;20118;-78
2023/12/02 10:51:55;;;;;;;23.42;10.13;;;1.70;99.90;;;;;;4127063;28;20645;-78
2023/12/02 10:53:59;;;;;;;21.63;9.20;;;1.90;99.90;;;;;;4118003;28;20724;-78